Página principal
METAR-TAF:

METAR-TAF

Aeroportos :

Matagami, Quebec, Canadá

latitude: 49-46N, longitude: 077-49W, altura: 281 m

Observação actual do tempo

O boletim foi feito há 14 minutos, às 21:00 UTC
Vento 4 kt de es-sudeste
Temperatura 17°C
Humidade 77%
Pressão 1009 hPa
Visibilidade: 14.5 km
Nuvens fragmentadasa uma altura de 3800 ft
Nuvens fragmentadasa uma altura de 5000 ft
Encobertoa uma altura de 11000 ft

METAR: CYNM 272100Z AUTO 12004KT 9SM BKN038 BKN050 OVC110 17/13 A2979 RMK SLP098 DENSITY ALT 1400FT

Hora: 17:14 (21:14 UTC)


TAF: em falta

Observações e previsões do tempo de mais de 4000 aeroportos (mensagens METAR e TAF).

As estações disponíveis são os pontos amarelos e vermelhos sobre o mapa.

Mova o rato sobre o mapa para ver o nome da estação.

Depois clique no ponto para visualizar as observações e previsões meteorológicas.

Para alterar o mapa : clique nos botões verdes com uma cruz preta para aumentar o zoom; no botão verde com uma pitada de zoom; ou nas setas verdes para mapas adjacentes.


METAR-TAF: